sensor_id;sensor_type;location;lat;lon;timestamp;temperature;humidity
46378;DHT22;32083;47.360;9.650;2023-10-13T01:03:04;15.70;92.20
46378;DHT22;32083;47.360;9.650;2023-10-13T01:06:23;15.70;91.60
46378;DHT22;32083;47.360;9.650;2023-10-13T01:09:58;15.80;92.00
46378;DHT22;32083;47.360;9.650;2023-10-13T01:12:51;15.80;91.50
46378;DHT22;32083;47.360;9.650;2023-10-13T01:16:11;15.80;91.60
46378;DHT22;32083;47.360;9.650;2023-10-13T03:05:26;15.40;90.80
46378;DHT22;32083;47.360;9.650;2023-10-13T03:08:56;15.40;90.70
46378;DHT22;32083;47.360;9.650;2023-10-13T03:12:01;15.40;90.70
46378;DHT22;32083;47.360;9.650;2023-10-13T03:14:50;15.40;90.80
46378;DHT22;32083;47.360;9.650;2023-10-13T03:18:30;15.40;91.00
46378;DHT22;32083;47.360;9.650;2023-10-13T03:22:09;15.40;91.20
46378;DHT22;32083;47.360;9.650;2023-10-13T03:28:57;15.30;90.80
46378;DHT22;32083;47.360;9.650;2023-10-13T03:32:39;15.20;91.50
46378;DHT22;32083;47.360;9.650;2023-10-13T03:36:04;15.20;91.50
46378;DHT22;32083;47.360;9.650;2023-10-13T03:39:11;15.20;91.70
46378;DHT22;32083;47.360;9.650;2023-10-13T04:02:46;14.90;91.00
46378;DHT22;32083;47.360;9.650;2023-10-13T04:05:18;14.90;91.10
46378;DHT22;32083;47.360;9.650;2023-10-13T04:08:05;14.90;91.40
46378;DHT22;32083;47.360;9.650;2023-10-13T04:11:02;14.90;91.40
46378;DHT22;32083;47.360;9.650;2023-10-13T04:13:47;14.90;91.60
46378;DHT22;32083;47.360;9.650;2023-10-13T04:16:35;14.90;91.50
46378;DHT22;32083;47.360;9.650;2023-10-13T04:19:02;14.90;91.40
46378;DHT22;32083;47.360;9.650;2023-10-13T04:21:28;14.80;91.50
46378;DHT22;32083;47.360;9.650;2023-10-13T04:24:13;14.90;91.60
46378;DHT22;32083;47.360;9.650;2023-10-13T04:26:49;14.90;91.50
46378;DHT22;32083;47.360;9.650;2023-10-13T04:29:34;14.90;91.50
46378;DHT22;32083;47.360;9.650;2023-10-13T04:32:16;14.90;91.50
46378;DHT22;32083;47.360;9.650;2023-10-13T04:34:57;14.90;91.60
46378;DHT22;32083;47.360;9.650;2023-10-13T04:37:37;14.90;91.30
46378;DHT22;32083;47.360;9.650;2023-10-13T04:40:21;14.90;91.40
46378;DHT22;32083;47.360;9.650;2023-10-13T04:42:53;15.00;91.60
46378;DHT22;32083;47.360;9.650;2023-10-13T04:45:25;14.90;91.40
46378;DHT22;32083;47.360;9.650;2023-10-13T04:47:57;14.90;91.20
46378;DHT22;32083;47.360;9.650;2023-10-13T04:50:45;14.90;91.50
46378;DHT22;32083;47.360;9.650;2023-10-13T04:53:17;14.90;91.20
46378;DHT22;32083;47.360;9.650;2023-10-13T04:56:09;14.90;91.00
46378;DHT22;32083;47.360;9.650;2023-10-13T04:58:54;14.90;91.10
46378;DHT22;32083;47.360;9.650;2023-10-13T05:01:44;14.90;91.00
46378;DHT22;32083;47.360;9.650;2023-10-13T05:04:33;14.90;91.10
46378;DHT22;32083;47.360;9.650;2023-10-13T05:07:24;14.90;90.90
46378;DHT22;32083;47.360;9.650;2023-10-13T05:10:09;14.90;90.70
46378;DHT22;32083;47.360;9.650;2023-10-13T05:12:53;14.90;90.80
46378;DHT22;32083;47.360;9.650;2023-10-13T05:15:48;14.90;90.70
46378;DHT22;32083;47.360;9.650;2023-10-13T05:18:32;14.90;90.30
46378;DHT22;32083;47.360;9.650;2023-10-13T05:21:17;14.90;91.00
46378;DHT22;32083;47.360;9.650;2023-10-13T05:24:03;14.80;90.90
46378;DHT22;32083;47.360;9.650;2023-10-13T05:26:47;14.80;90.90
46378;DHT22;32083;47.360;9.650;2023-10-13T05:29:32;14.80;90.50
46378;DHT22;32083;47.360;9.650;2023-10-13T05:32:17;14.80;90.80
46378;DHT22;32083;47.360;9.650;2023-10-13T05:35:01;14.80;91.20
46378;DHT22;32083;47.360;9.650;2023-10-13T05:37:45;14.70;91.10
46378;DHT22;32083;47.360;9.650;2023-10-13T05:40:29;14.80;91.00
46378;DHT22;32083;47.360;9.650;2023-10-13T05:43:14;14.70;91.00
46378;DHT22;32083;47.360;9.650;2023-10-13T05:46:02;14.70;91.00
46378;DHT22;32083;47.360;9.650;2023-10-13T05:48:47;14.60;91.40
46378;DHT22;32083;47.360;9.650;2023-10-13T05:51:26;14.60;91.40
46378;DHT22;32083;47.360;9.650;2023-10-13T05:54:10;14.50;91.40
46378;DHT22;32083;47.360;9.650;2023-10-13T05:56:48;14.50;91.40
46378;DHT22;32083;47.360;9.650;2023-10-13T05:59:35;14.60;91.10
46378;DHT22;32083;47.360;9.650;2023-10-13T06:02:21;14.60;91.40
46378;DHT22;32083;47.360;9.650;2023-10-13T06:05:09;14.60;91.50
46378;DHT22;32083;47.360;9.650;2023-10-13T06:07:54;14.60;91.30
46378;DHT22;32083;47.360;9.650;2023-10-13T06:10:39;14.60;91.40
46378;DHT22;32083;47.360;9.650;2023-10-13T06:13:24;14.70;91.50
46378;DHT22;32083;47.360;9.650;2023-10-13T06:16:09;14.70;91.40
46378;DHT22;32083;47.360;9.650;2023-10-13T06:18:55;14.70;91.00
46378;DHT22;32083;47.360;9.650;2023-10-13T06:21:40;14.80;91.60
46378;DHT22;32083;47.360;9.650;2023-10-13T06:24:24;14.80;91.40
46378;DHT22;32083;47.360;9.650;2023-10-13T06:27:09;14.80;91.50
46378;DHT22;32083;47.360;9.650;2023-10-13T06:29:54;14.80;91.40
46378;DHT22;32083;47.360;9.650;2023-10-13T06:32:20;14.90;91.00
46378;DHT22;32083;47.360;9.650;2023-10-13T06:34:54;14.90;91.20
46378;DHT22;32083;47.360;9.650;2023-10-13T06:37:25;15.00;91.00
46378;DHT22;32083;47.360;9.650;2023-10-13T06:39:56;15.00;91.20
46378;DHT22;32083;47.360;9.650;2023-10-13T06:42:25;15.00;91.20
46378;DHT22;32083;47.360;9.650;2023-10-13T06:44:53;15.00;91.20
46378;DHT22;32083;47.360;9.650;2023-10-13T06:47:23;15.00;91.00
46378;DHT22;32083;47.360;9.650;2023-10-13T06:49:50;15.00;91.30
46378;DHT22;32083;47.360;9.650;2023-10-13T06:52:20;15.00;91.20
46378;DHT22;32083;47.360;9.650;2023-10-13T06:54:51;15.00;90.90
46378;DHT22;32083;47.360;9.650;2023-10-13T06:57:17;15.20;90.80
46378;DHT22;32083;47.360;9.650;2023-10-13T06:59:49;15.30;90.50
46378;DHT22;32083;47.360;9.650;2023-10-13T07:02:15;15.50;90.90
46378;DHT22;32083;47.360;9.650;2023-10-13T07:04:59;15.70;90.40
46378;DHT22;32083;47.360;9.650;2023-10-13T07:07:38;15.90;90.20
46378;DHT22;32083;47.360;9.650;2023-10-13T07:10:12;16.00;90.30
46378;DHT22;32083;47.360;9.650;2023-10-13T07:12:38;16.10;90.40
46378;DHT22;32083;47.360;9.650;2023-10-13T07:15:09;16.30;90.10
46378;DHT22;32083;47.360;9.650;2023-10-13T07:17:45;16.40;89.00
46378;DHT22;32083;47.360;9.650;2023-10-13T07:20:11;16.60;89.10
46378;DHT22;32083;47.360;9.650;2023-10-13T07:23:00;16.80;89.10
46378;DHT22;32083;47.360;9.650;2023-10-13T07:25:33;16.90;87.50
46378;DHT22;32083;47.360;9.650;2023-10-13T07:28:03;17.00;87.20
46378;DHT22;32083;47.360;9.650;2023-10-13T07:30:35;17.20;87.00
46378;DHT22;32083;47.360;9.650;2023-10-13T07:33:27;17.30;86.90
46378;DHT22;32083;47.360;9.650;2023-10-13T07:38:27;17.50;86.50
46378;DHT22;32083;47.360;9.650;2023-10-13T07:40:56;17.50;86.40
46378;DHT22;32083;47.360;9.650;2023-10-13T07:43:32;17.60;87.10
46378;DHT22;32083;47.360;9.650;2023-10-13T07:45:58;17.70;86.70
46378;DHT22;32083;47.360;9.650;2023-10-13T07:48:25;17.80;86.70
46378;DHT22;32083;47.360;9.650;2023-10-13T07:51:01;17.90;84.70
46378;DHT22;32083;47.360;9.650;2023-10-13T07:53:29;17.90;85.90
46378;DHT22;32083;47.360;9.650;2023-10-13T07:56:00;17.90;86.10
46378;DHT22;32083;47.360;9.650;2023-10-13T07:58:31;18.00;85.90
46378;DHT22;32083;47.360;9.650;2023-10-13T08:01:00;18.00;86.20
46378;DHT22;32083;47.360;9.650;2023-10-13T08:03:35;18.00;85.80
46378;DHT22;32083;47.360;9.650;2023-10-13T08:06:17;18.10;86.80
46378;DHT22;32083;47.360;9.650;2023-10-13T08:08:44;18.10;85.40
46378;DHT22;32083;47.360;9.650;2023-10-13T08:11:16;18.20;85.40
46378;DHT22;32083;47.360;9.650;2023-10-13T08:13:52;18.30;83.70
46378;DHT22;32083;47.360;9.650;2023-10-13T08:16:40;18.50;83.20
46378;DHT22;32083;47.360;9.650;2023-10-13T08:19:23;18.50;84.30
46378;DHT22;32083;47.360;9.650;2023-10-13T08:21:55;18.50;84.30
46378;DHT22;32083;47.360;9.650;2023-10-13T08:24:47;18.60;83.90
46378;DHT22;32083;47.360;9.650;2023-10-13T08:27:22;18.60;84.20
46378;DHT22;32083;47.360;9.650;2023-10-13T08:30:01;18.70;85.50
46378;DHT22;32083;47.360;9.650;2023-10-13T08:32:29;18.70;84.40
46378;DHT22;32083;47.360;9.650;2023-10-13T08:34:59;18.70;85.10
46378;DHT22;32083;47.360;9.650;2023-10-13T08:37:35;18.80;86.10
46378;DHT22;32083;47.360;9.650;2023-10-13T08:40:14;18.90;86.40
46378;DHT22;32083;47.360;9.650;2023-10-13T08:43:06;19.00;83.70
46378;DHT22;32083;47.360;9.650;2023-10-13T08:45:38;19.10;83.90
46378;DHT22;32083;47.360;9.650;2023-10-13T08:48:06;19.10;84.60
46378;DHT22;32083;47.360;9.650;2023-10-13T08:50:36;19.20;84.30
46378;DHT22;32083;47.360;9.650;2023-10-13T08:53:21;19.30;84.60
46378;DHT22;32083;47.360;9.650;2023-10-13T08:56:07;19.30;84.10
46378;DHT22;32083;47.360;9.650;2023-10-13T08:58:36;19.20;84.10
46378;DHT22;32083;47.360;9.650;2023-10-13T09:01:31;19.20;85.40
46378;DHT22;32083;47.360;9.650;2023-10-13T09:04:26;19.20;85.80
46378;DHT22;32083;47.360;9.650;2023-10-13T09:09:53;19.10;86.70
46378;DHT22;32083;47.360;9.650;2023-10-13T09:12:27;19.00;86.40
46378;DHT22;32083;47.360;9.650;2023-10-13T09:15:07;19.00;87.40
46378;DHT22;32083;47.360;9.650;2023-10-13T09:17:49;19.00;87.00
46378;DHT22;32083;47.360;9.650;2023-10-13T09:20:30;19.10;87.70
46378;DHT22;32083;47.360;9.650;2023-10-13T09:23:13;19.10;87.80
46378;DHT22;32083;47.360;9.650;2023-10-13T09:25:51;19.20;87.70
46378;DHT22;32083;47.360;9.650;2023-10-13T09:28:24;19.20;87.40
46378;DHT22;32083;47.360;9.650;2023-10-13T09:30:54;19.40;86.80
46378;DHT22;32083;47.360;9.650;2023-10-13T09:33:27;19.40;86.00
46378;DHT22;32083;47.360;9.650;2023-10-13T09:36:05;19.50;85.70
46378;DHT22;32083;47.360;9.650;2023-10-13T09:38:33;19.50;85.30
46378;DHT22;32083;47.360;9.650;2023-10-13T09:41:00;19.60;84.50
46378;DHT22;32083;47.360;9.650;2023-10-13T09:43:35;19.60;85.00
46378;DHT22;32083;47.360;9.650;2023-10-13T09:46:06;19.70;85.20
46378;DHT22;32083;47.360;9.650;2023-10-13T09:48:44;19.70;86.10
46378;DHT22;32083;47.360;9.650;2023-10-13T09:51:16;19.70;85.90
46378;DHT22;32083;47.360;9.650;2023-10-13T09:54:08;19.70;85.40
46378;DHT22;32083;47.360;9.650;2023-10-13T09:56:44;19.70;86.10
46378;DHT22;32083;47.360;9.650;2023-10-13T09:59:24;19.70;86.60
46378;DHT22;32083;47.360;9.650;2023-10-13T10:02:01;19.80;86.80
46378;DHT22;32083;47.360;9.650;2023-10-13T10:04:35;19.90;85.80
46378;DHT22;32083;47.360;9.650;2023-10-13T10:07:09;19.90;86.90
46378;DHT22;32083;47.360;9.650;2023-10-13T10:09:35;20.00;85.60
46378;DHT22;32083;47.360;9.650;2023-10-13T10:17:43;20.00;84.40
46378;DHT22;32083;47.360;9.650;2023-10-13T10:20:09;20.10;86.30
46378;DHT22;32083;47.360;9.650;2023-10-13T10:22:59;20.20;85.30
46378;DHT22;32083;47.360;9.650;2023-10-13T10:25:32;20.30;85.00
46378;DHT22;32083;47.360;9.650;2023-10-13T10:28:05;20.30;85.50
46378;DHT22;32083;47.360;9.650;2023-10-13T10:30:38;20.40;84.80
46378;DHT22;32083;47.360;9.650;2023-10-13T10:33:05;20.50;84.30
46378;DHT22;32083;47.360;9.650;2023-10-13T10:35:59;20.50;83.60
46378;DHT22;32083;47.360;9.650;2023-10-13T10:38:25;20.60;82.20
46378;DHT22;32083;47.360;9.650;2023-10-13T10:40:56;20.80;80.70
46378;DHT22;32083;47.360;9.650;2023-10-13T10:43:43;20.80;81.00
46378;DHT22;32083;47.360;9.650;2023-10-13T10:46:25;20.80;80.70
46378;DHT22;32083;47.360;9.650;2023-10-13T10:48:52;20.80;81.20
46378;DHT22;32083;47.360;9.650;2023-10-13T10:51:28;20.80;82.60
46378;DHT22;32083;47.360;9.650;2023-10-13T10:53:58;20.80;84.50
46378;DHT22;32083;47.360;9.650;2023-10-13T10:56:37;20.80;83.90
46378;DHT22;32083;47.360;9.650;2023-10-13T10:59:05;20.90;84.90
46378;DHT22;32083;47.360;9.650;2023-10-13T11:01:45;20.80;84.90
46378;DHT22;32083;47.360;9.650;2023-10-13T11:04:17;20.90;83.80
46378;DHT22;32083;47.360;9.650;2023-10-13T11:06:51;20.90;85.70
46378;DHT22;32083;47.360;9.650;2023-10-13T11:09:30;20.90;85.10
46378;DHT22;32083;47.360;9.650;2023-10-13T11:15:08;21.10;81.10
46378;DHT22;32083;47.360;9.650;2023-10-13T11:17:51;21.20;80.00
46378;DHT22;32083;47.360;9.650;2023-10-13T11:20:21;21.20;83.60
46378;DHT22;32083;47.360;9.650;2023-10-13T11:22:59;21.30;83.10
46378;DHT22;32083;47.360;9.650;2023-10-13T11:25:26;21.30;83.70
46378;DHT22;32083;47.360;9.650;2023-10-13T11:28:09;21.30;84.20
46378;DHT22;32083;47.360;9.650;2023-10-13T11:30:35;21.40;81.70
46378;DHT22;32083;47.360;9.650;2023-10-13T11:33:06;21.50;81.30
46378;DHT22;32083;47.360;9.650;2023-10-13T11:35:33;21.50;81.80
46378;DHT22;32083;47.360;9.650;2023-10-13T11:38:15;21.50;81.30
46378;DHT22;32083;47.360;9.650;2023-10-13T11:40:52;21.60;81.10
46378;DHT22;32083;47.360;9.650;2023-10-13T11:43:44;21.60;81.60
46378;DHT22;32083;47.360;9.650;2023-10-13T11:46:25;21.60;83.90
46378;DHT22;32083;47.360;9.650;2023-10-13T11:49:07;21.60;82.20
46378;DHT22;32083;47.360;9.650;2023-10-13T11:51:40;21.70;80.60
46378;DHT22;32083;47.360;9.650;2023-10-13T11:54:15;21.80;79.90
46378;DHT22;32083;47.360;9.650;2023-10-13T11:56:43;21.90;79.90
46378;DHT22;32083;47.360;9.650;2023-10-13T11:59:10;21.80;80.60
46378;DHT22;32083;47.360;9.650;2023-10-13T12:01:50;22.00;80.80
46378;DHT22;32083;47.360;9.650;2023-10-13T12:04:35;22.10;80.10
46378;DHT22;32083;47.360;9.650;2023-10-13T12:07:10;22.20;80.70
46378;DHT22;32083;47.360;9.650;2023-10-13T12:09:54;22.20;78.80
46378;DHT22;32083;47.360;9.650;2023-10-13T12:12:24;22.30;78.40
46378;DHT22;32083;47.360;9.650;2023-10-13T12:14:51;22.40;78.90
46378;DHT22;32083;47.360;9.650;2023-10-13T12:20:07;22.60;79.50
46378;DHT22;32083;47.360;9.650;2023-10-13T12:22:39;22.60;79.60
46378;DHT22;32083;47.360;9.650;2023-10-13T12:25:06;22.70;79.30
46378;DHT22;32083;47.360;9.650;2023-10-13T12:27:50;22.70;79.30
46378;DHT22;32083;47.360;9.650;2023-10-13T12:30:22;22.80;79.20
46378;DHT22;32083;47.360;9.650;2023-10-13T12:33:01;22.80;78.90
46378;DHT22;32083;47.360;9.650;2023-10-13T12:35:44;22.90;78.30
46378;DHT22;32083;47.360;9.650;2023-10-13T12:38:28;23.00;77.10
46378;DHT22;32083;47.360;9.650;2023-10-13T12:41:20;23.10;79.00
46378;DHT22;32083;47.360;9.650;2023-10-13T12:44:05;23.20;77.60
46378;DHT22;32083;47.360;9.650;2023-10-13T12:46:51;23.20;77.30
46378;DHT22;32083;47.360;9.650;2023-10-13T12:49:36;23.10;77.30
46378;DHT22;32083;47.360;9.650;2023-10-13T12:52:11;23.20;76.50
46378;DHT22;32083;47.360;9.650;2023-10-13T12:54:51;23.30;76.00
46378;DHT22;32083;47.360;9.650;2023-10-13T12:57:26;23.30;74.90
46378;DHT22;32083;47.360;9.650;2023-10-13T12:59:53;23.40;75.30
46378;DHT22;32083;47.360;9.650;2023-10-13T13:02:22;23.30;75.70
46378;DHT22;32083;47.360;9.650;2023-10-13T13:04:51;23.30;76.80
46378;DHT22;32083;47.360;9.650;2023-10-13T13:07:20;23.30;75.50
46378;DHT22;32083;47.360;9.650;2023-10-13T13:09:46;23.30;77.10
46378;DHT22;32083;47.360;9.650;2023-10-13T13:12:12;23.30;75.40
46378;DHT22;32083;47.360;9.650;2023-10-13T13:14:38;23.40;75.90
46378;DHT22;32083;47.360;9.650;2023-10-13T13:17:07;23.50;74.40
46378;DHT22;32083;47.360;9.650;2023-10-13T13:19:37;23.40;76.60
46378;DHT22;32083;47.360;9.650;2023-10-13T13:22:06;23.40;75.10
46378;DHT22;32083;47.360;9.650;2023-10-13T13:24:41;23.50;75.70
46378;DHT22;32083;47.360;9.650;2023-10-13T13:27:18;23.50;76.70
46378;DHT22;32083;47.360;9.650;2023-10-13T13:29:47;23.60;76.50
46378;DHT22;32083;47.360;9.650;2023-10-13T13:32:13;23.60;76.90
46378;DHT22;32083;47.360;9.650;2023-10-13T13:34:52;23.60;75.10
46378;DHT22;32083;47.360;9.650;2023-10-13T13:37:30;23.70;75.00
46378;DHT22;32083;47.360;9.650;2023-10-13T13:39:56;23.70;75.10
46378;DHT22;32083;47.360;9.650;2023-10-13T13:42:39;23.70;76.80
46378;DHT22;32083;47.360;9.650;2023-10-13T13:45:18;23.70;76.10
46378;DHT22;32083;47.360;9.650;2023-10-13T13:47:54;23.80;78.80
46378;DHT22;32083;47.360;9.650;2023-10-13T13:50:25;24.00;77.00
46378;DHT22;32083;47.360;9.650;2023-10-13T13:52:53;24.00;77.10
46378;DHT22;32083;47.360;9.650;2023-10-13T13:55:22;24.10;76.70
46378;DHT22;32083;47.360;9.650;2023-10-13T13:57:49;24.20;79.10
46378;DHT22;32083;47.360;9.650;2023-10-13T14:00:17;24.20;78.60
46378;DHT22;32083;47.360;9.650;2023-10-13T14:02:48;24.20;79.20
46378;DHT22;32083;47.360;9.650;2023-10-13T14:05:15;24.30;80.50
46378;DHT22;32083;47.360;9.650;2023-10-13T14:07:43;24.30;80.80
46378;DHT22;32083;47.360;9.650;2023-10-13T14:10:18;24.40;80.40
46378;DHT22;32083;47.360;9.650;2023-10-13T14:13:19;24.30;81.20
46378;DHT22;32083;47.360;9.650;2023-10-13T14:15:48;24.40;81.40
46378;DHT22;32083;47.360;9.650;2023-10-13T14:18:14;24.40;81.80
46378;DHT22;32083;47.360;9.650;2023-10-13T14:20:42;24.30;81.00
46378;DHT22;32083;47.360;9.650;2023-10-13T14:23:09;24.30;80.10
46378;DHT22;32083;47.360;9.650;2023-10-13T14:25:38;24.30;80.70
46378;DHT22;32083;47.360;9.650;2023-10-13T14:28:07;24.20;81.40
46378;DHT22;32083;47.360;9.650;2023-10-13T14:30:33;24.20;81.20
46378;DHT22;32083;47.360;9.650;2023-10-13T14:32:59;24.10;79.90
46378;DHT22;32083;47.360;9.650;2023-10-13T14:35:26;24.00;80.80
46378;DHT22;32083;47.360;9.650;2023-10-13T14:37:53;24.00;79.90
46378;DHT22;32083;47.360;9.650;2023-10-13T14:40:19;23.90;80.10
46378;DHT22;32083;47.360;9.650;2023-10-13T14:42:47;23.90;80.20
46378;DHT22;32083;47.360;9.650;2023-10-13T14:45:14;23.90;81.70
46378;DHT22;32083;47.360;9.650;2023-10-13T14:47:43;23.80;82.40
46378;DHT22;32083;47.360;9.650;2023-10-13T14:50:10;23.80;81.50
46378;DHT22;32083;47.360;9.650;2023-10-13T14:52:49;23.80;80.40
46378;DHT22;32083;47.360;9.650;2023-10-13T14:55:15;23.80;80.40
46378;DHT22;32083;47.360;9.650;2023-10-13T14:57:48;23.80;80.60
46378;DHT22;32083;47.360;9.650;2023-10-13T15:00:16;23.70;81.30
46378;DHT22;32083;47.360;9.650;2023-10-13T15:02:53;23.70;81.20
46378;DHT22;32083;47.360;9.650;2023-10-13T15:05:20;23.60;81.10
46378;DHT22;32083;47.360;9.650;2023-10-13T15:07:46;23.60;81.70
46378;DHT22;32083;47.360;9.650;2023-10-13T15:10:15;23.60;80.90
46378;DHT22;32083;47.360;9.650;2023-10-13T15:12:42;23.60;81.30
46378;DHT22;32083;47.360;9.650;2023-10-13T15:15:10;23.60;81.40
46378;DHT22;32083;47.360;9.650;2023-10-13T15:17:40;23.60;81.90
46378;DHT22;32083;47.360;9.650;2023-10-13T15:20:07;23.50;82.10
46378;DHT22;32083;47.360;9.650;2023-10-13T15:22:42;23.40;82.40
46378;DHT22;32083;47.360;9.650;2023-10-13T15:25:08;23.40;83.30
46378;DHT22;32083;47.360;9.650;2023-10-13T15:27:43;23.40;83.80
46378;DHT22;32083;47.360;9.650;2023-10-13T15:30:15;23.40;84.30
46378;DHT22;32083;47.360;9.650;2023-10-13T15:32:52;23.30;84.50
46378;DHT22;32083;47.360;9.650;2023-10-13T15:35:19;23.30;84.90
46378;DHT22;32083;47.360;9.650;2023-10-13T15:37:49;23.20;84.80
46378;DHT22;32083;47.360;9.650;2023-10-13T15:40:17;23.20;85.30
46378;DHT22;32083;47.360;9.650;2023-10-13T15:42:44;23.10;85.60
46378;DHT22;32083;47.360;9.650;2023-10-13T15:45:13;23.10;85.60
46378;DHT22;32083;47.360;9.650;2023-10-13T15:47:44;23.00;85.50
46378;DHT22;32083;47.360;9.650;2023-10-13T15:50:15;23.00;85.60
46378;DHT22;32083;47.360;9.650;2023-10-13T15:52:42;23.00;86.20
46378;DHT22;32083;47.360;9.650;2023-10-13T15:55:16;22.90;85.60
46378;DHT22;32083;47.360;9.650;2023-10-13T15:57:44;22.80;85.90
46378;DHT22;32083;47.360;9.650;2023-10-13T16:00:11;22.80;86.20
46378;DHT22;32083;47.360;9.650;2023-10-13T16:02:53;22.70;86.70
46378;DHT22;32083;47.360;9.650;2023-10-13T16:05:32;22.70;86.20
46378;DHT22;32083;47.360;9.650;2023-10-13T16:08:03;22.60;87.40
46378;DHT22;32083;47.360;9.650;2023-10-13T16:10:29;22.50;87.40
46378;DHT22;32083;47.360;9.650;2023-10-13T16:12:55;22.50;87.40
46378;DHT22;32083;47.360;9.650;2023-10-13T16:15:24;22.40;88.00
46378;DHT22;32083;47.360;9.650;2023-10-13T16:17:50;22.30;88.10
46378;DHT22;32083;47.360;9.650;2023-10-13T16:20:19;22.20;88.90
46378;DHT22;32083;47.360;9.650;2023-10-13T16:22:47;22.10;89.90
46378;DHT22;32083;47.360;9.650;2023-10-13T16:25:15;22.00;90.10
46378;DHT22;32083;47.360;9.650;2023-10-13T16:27:43;22.00;89.90
46378;DHT22;32083;47.360;9.650;2023-10-13T16:30:10;21.80;90.00
46378;DHT22;32083;47.360;9.650;2023-10-13T16:32:44;21.70;90.30
46378;DHT22;32083;47.360;9.650;2023-10-13T16:35:17;21.60;90.10
46378;DHT22;32083;47.360;9.650;2023-10-13T16:37:48;21.50;90.20
46378;DHT22;32083;47.360;9.650;2023-10-13T16:40:18;21.40;90.50
46378;DHT22;32083;47.360;9.650;2023-10-13T16:42:48;21.30;90.60
46378;DHT22;32083;47.360;9.650;2023-10-13T16:45:14;21.20;90.70
46378;DHT22;32083;47.360;9.650;2023-10-13T16:47:42;21.10;91.30
46378;DHT22;32083;47.360;9.650;2023-10-13T16:50:10;21.00;91.10
46378;DHT22;32083;47.360;9.650;2023-10-13T16:52:36;20.90;91.30
46378;DHT22;32083;47.360;9.650;2023-10-13T16:55:03;20.80;91.70
46378;DHT22;32083;47.360;9.650;2023-10-13T16:57:29;20.70;91.70
46378;DHT22;32083;47.360;9.650;2023-10-13T16:59:55;20.70;92.00
46378;DHT22;32083;47.360;9.650;2023-10-13T17:02:21;20.50;92.20
46378;DHT22;32083;47.360;9.650;2023-10-13T17:04:47;20.40;92.30
46378;DHT22;32083;47.360;9.650;2023-10-13T17:07:13;20.40;92.10
46378;DHT22;32083;47.360;9.650;2023-10-13T17:09:40;20.30;92.20
46378;DHT22;32083;47.360;9.650;2023-10-13T17:12:06;20.20;92.30
46378;DHT22;32083;47.360;9.650;2023-10-13T17:14:32;20.10;92.60
46378;DHT22;32083;47.360;9.650;2023-10-13T17:16:58;19.90;93.10
46378;DHT22;32083;47.360;9.650;2023-10-13T17:19:24;19.90;93.10
46378;DHT22;32083;47.360;9.650;2023-10-13T17:21:50;19.80;94.00
46378;DHT22;32083;47.360;9.650;2023-10-13T17:24:19;19.70;93.60
46378;DHT22;32083;47.360;9.650;2023-10-13T17:26:45;19.60;93.70
46378;DHT22;32083;47.360;9.650;2023-10-13T17:29:15;19.60;93.70
46378;DHT22;32083;47.360;9.650;2023-10-13T17:31:41;19.60;93.30
46378;DHT22;32083;47.360;9.650;2023-10-13T17:34:07;19.50;93.40
46378;DHT22;32083;47.360;9.650;2023-10-13T17:36:33;19.40;93.60
46378;DHT22;32083;47.360;9.650;2023-10-13T17:38:59;19.40;93.20
46378;DHT22;32083;47.360;9.650;2023-10-13T17:41:26;19.40;93.30
46378;DHT22;32083;47.360;9.650;2023-10-13T17:43:53;19.30;93.70
46378;DHT22;32083;47.360;9.650;2023-10-13T17:46:21;19.30;93.70
46378;DHT22;32083;47.360;9.650;2023-10-13T17:48:48;19.20;94.00
46378;DHT22;32083;47.360;9.650;2023-10-13T17:51:14;19.10;93.80
46378;DHT22;32083;47.360;9.650;2023-10-13T17:53:40;19.00;94.10
46378;DHT22;32083;47.360;9.650;2023-10-13T17:56:13;19.00;94.00
46378;DHT22;32083;47.360;9.650;2023-10-13T17:58:43;18.90;94.10
46378;DHT22;32083;47.360;9.650;2023-10-13T18:01:14;18.90;93.90
46378;DHT22;32083;47.360;9.650;2023-10-13T18:03:50;18.80;94.00
46378;DHT22;32083;47.360;9.650;2023-10-13T18:06:20;18.70;94.40
46378;DHT22;32083;47.360;9.650;2023-10-13T18:08:48;18.60;94.30
46378;DHT22;32083;47.360;9.650;2023-10-13T18:11:15;18.60;94.20
46378;DHT22;32083;47.360;9.650;2023-10-13T18:13:46;18.50;93.90
46378;DHT22;32083;47.360;9.650;2023-10-13T18:16:21;18.50;93.90
46378;DHT22;32083;47.360;9.650;2023-10-13T18:18:49;18.40;94.40
46378;DHT22;32083;47.360;9.650;2023-10-13T18:21:16;18.30;94.70
46378;DHT22;32083;47.360;9.650;2023-10-13T18:23:46;18.30;94.70
46378;DHT22;32083;47.360;9.650;2023-10-13T18:26:12;18.10;94.30
46378;DHT22;32083;47.360;9.650;2023-10-13T18:28:41;18.10;94.60
46378;DHT22;32083;47.360;9.650;2023-10-13T18:31:08;18.00;95.00
46378;DHT22;32083;47.360;9.650;2023-10-13T18:33:38;17.90;94.90
46378;DHT22;32083;47.360;9.650;2023-10-13T18:36:15;17.80;94.80
46378;DHT22;32083;47.360;9.650;2023-10-13T18:38:43;17.80;95.30
46378;DHT22;32083;47.360;9.650;2023-10-13T18:41:09;17.70;94.90
46378;DHT22;32083;47.360;9.650;2023-10-13T18:43:43;17.70;95.00
46378;DHT22;32083;47.360;9.650;2023-10-13T18:46:09;17.70;95.30
46378;DHT22;32083;47.360;9.650;2023-10-13T18:48:36;17.60;95.60
46378;DHT22;32083;47.360;9.650;2023-10-13T18:51:11;17.60;95.70
46378;DHT22;32083;47.360;9.650;2023-10-13T18:53:37;17.50;95.90
46378;DHT22;32083;47.360;9.650;2023-10-13T18:56:17;17.40;96.20
46378;DHT22;32083;47.360;9.650;2023-10-13T18:58:47;17.30;96.00
46378;DHT22;32083;47.360;9.650;2023-10-13T19:01:21;17.30;96.00
46378;DHT22;32083;47.360;9.650;2023-10-13T19:04:13;17.30;95.70
46378;DHT22;32083;47.360;9.650;2023-10-13T19:06:40;17.20;96.00
46378;DHT22;32083;47.360;9.650;2023-10-13T19:09:07;17.20;95.80
46378;DHT22;32083;47.360;9.650;2023-10-13T19:11:35;17.10;96.10
46378;DHT22;32083;47.360;9.650;2023-10-13T19:14:02;17.10;96.50
46378;DHT22;32083;47.360;9.650;2023-10-13T19:16:29;17.10;96.60
46378;DHT22;32083;47.360;9.650;2023-10-13T19:18:57;17.00;96.60
46378;DHT22;32083;47.360;9.650;2023-10-13T19:21:29;16.90;96.50
46378;DHT22;32083;47.360;9.650;2023-10-13T19:23:55;16.70;96.60
46378;DHT22;32083;47.360;9.650;2023-10-13T19:26:26;16.70;96.50
46378;DHT22;32083;47.360;9.650;2023-10-13T19:28:57;16.70;96.30
46378;DHT22;32083;47.360;9.650;2023-10-13T19:31:28;16.70;95.90
46378;DHT22;32083;47.360;9.650;2023-10-13T19:33:57;16.60;96.00
46378;DHT22;32083;47.360;9.650;2023-10-13T19:36:28;16.60;96.40
46378;DHT22;32083;47.360;9.650;2023-10-13T19:38:58;16.50;96.50
46378;DHT22;32083;47.360;9.650;2023-10-13T19:41:25;16.50;96.50
46378;DHT22;32083;47.360;9.650;2023-10-13T19:43:52;16.40;96.70
46378;DHT22;32083;47.360;9.650;2023-10-13T19:46:23;16.40;96.90
46378;DHT22;32083;47.360;9.650;2023-10-13T19:48:50;16.30;96.50
46378;DHT22;32083;47.360;9.650;2023-10-13T19:51:17;16.30;97.00